Main page
METAR-TAF:

METAR-TAF

Airports :

Larnaca International Airport

Larnaca, Cyprus

latitude: 34-53N, longitude: 033-38E, elevation: 2 m

Current weather observation

The report was made 23 minutes ago, at 20:30 UTC
Wind 4 kt from the Northwest
Temperature 14°C
Humidity 88%
Pressure 1016 hPa
Visibility 10 km or more
no clouds below 1500 m and no cumulonimbus

METAR: LCLK 212030Z 31004KT CAVOK 14/12 Q1016 NOSIG

Time: 22:53 (20:53 UTC)

Forecast

The report was made 3 hours and 23 minutes ago, at 17:30 UTC
Forecast valid from 21 at 18 UTC to 22 at 18 UTC
Wind 7 kt from the North/Northwest
Visibility 10 km or more
Few clouds at a height of 3500 ft
Becoming
from 22 at 09 UTC to 22 at 12 UTC
Wind 10 kt from the South
Becoming
from 22 at 16 UTC to 22 at 18 UTC
Wind 5 kt from the West/Northwest

TAF: LCLK 211730Z 2118/2218 33007KT 9999 FEW035 BECMG 2209/2212 19010KT BECMG 2216/2218 30005KT

Weather observations and forecasts of more than 4000 airports (METAR and TAF reports).

The available stations are represented by yellow and red dots on the map.

Hover mouse over dot to see the name of the station.

Then click to see weather observations and forecasts.

To change the map : click on the green buttons with a black cross to zoom in, on the green button with a dash to zoom out, or on the green arrows for adjacent maps.


METAR-TAF: